Pagrindinis puslapis
METAR-TAF:

METAR-TAF

Oro uostai :

Bryan, Teksasas, Jungtinės Amerikos Valstijos

platuma: 30-42-56N, ilguma: 096-19-53W, Aukštis: 112 m

Dabartinis oras

Ataskaita buvo paskelbta 32 minutes, ne 11:15 UTC
Vėjas 5 kt iš Šiaurės
Temperatūra 21°C
Drėgmė 94%
Slėgis 1018 hPa
Matomumas: 16.1 km
Giedras dangus

METAR: KCFD 291115Z AUTO 36005KT 10SM CLR 21/20 A3006 RMK AO2 T02110203

Laikas: 05:47 (11:47 UTC)


TAF: trūkstamas

Orai ataskaitas ir orų prognozės (METAR, TAF).

turimą stotys yra geltonos ir raudonos taškus žemėlapyje.

Perkelti pele per norėdami pamatyti stoties vardą.

Tada spustelėkite, norėdami matyti oro stebėjimo ir prognozės.

Norėdami pakeisti žemėlapį: spustelėkite ant žalios mygtukų su juodo kryžiaus žemyn,; žalią mygtuką su brūkšneliu, jei norite nutolinti; arba žalių rodyklių gretimoms žemėlapius.


METAR-TAF: